Daily Summary for August 09, 2022 Units:  Metric    English   Both
Daily Weekly Monthly Yearly
  Current: High: Low: Average:
Temperature: 5.3 °C 14 °C -0.5 °C 6.2 °C
Dew Point: 3.2 °C 4.6 °C -1.9 °C 1.9 °C
Humidity: 86% 90% 44.4% 76%
Wind Speed: 0km/h 7.7km/h 0km/h 1.7km/h
Wind Gust: 3.2km/h 17.7km/h - -
WindCalm - - SSW
Pressure: 1027.5 hPa 1028.0 hPa 1024.4 hPa -
Precipitation: 0.2 mm      
 
 
Tabular Data for August 09, 2022
Time Temperature Dew Point Pressure Wind Wind Speed Wind Gust Humidity Rainfall Rate (Hourly) solar
00:04 2.8 °C 1.2 °C 1024.7 hPa Calm     89% 0.2 mm 0 W/m2
00:09 2.8 °C 1.2 °C 1024.7 hPa Calm     89% 0.2 mm 0 W/m2
00:14 2.7 °C 1.1 °C 1024.7 hPa Calm     89% 0.2 mm 0 W/m2
00:19 2.6 °C 0.9 °C 1024.7 hPa Calm     89% 0.2 mm 0 W/m2
00:24 2.7 °C 1.1 °C 1024.7 hPa Calm     89% 0.2 mm 0 W/m2
00:29 2.7 °C 1.1 °C 1024.7 hPa Calm     89% 0.2 mm 0 W/m2
00:34 2.3 °C 0.7 °C 1024.7 hPa Calm     89% 0.0 mm 0 W/m2
00:39 2.3 °C 0.7 °C 1024.7 hPa Calm     89% 0.0 mm 0 W/m2
00:44 2.3 °C 0.7 °C 1024.7 hPa Calm     89% 0.0 mm 0 W/m2
00:49 1.9 °C 0.3 °C 1024.7 hPa Calm     89% 0.0 mm 0 W/m2
00:54 2 °C 0.4 °C 1024.7 hPa Calm     89% 0.0 mm 0 W/m2
00:59 2.1 °C 0.5 °C 1024.7 hPa Calm     89% 0.0 mm 0 W/m2
01:04 2 °C 0.4 °C 1024.7 hPa Calm     89% 0.0 mm 0 W/m2
01:09 1.6 °C 0 °C 1024.6 hPa Calm     89% 0.0 mm 0 W/m2
01:14 1.6 °C 0 °C 1024.6 hPa Calm     89% 0.0 mm 0 W/m2
01:19 1.5 °C -0.1 °C 1024.7 hPa Calm     89% 0.0 mm 0 W/m2
01:24 1.6 °C 0 °C 1024.7 hPa Calm     89% 0.0 mm 0 W/m2
01:29 1.5 °C -0.1 °C 1024.7 hPa Calm     89% 0.0 mm 0 W/m2
01:34 1.5 °C -0.1 °C 1024.7 hPa Calm     89% 0.0 mm 0 W/m2
01:39 1.6 °C 0 °C 1024.6 hPa Calm     89% 0.0 mm 0 W/m2
01:44 1.5 °C -0.2 °C 1024.6 hPa Calm     89% 0.0 mm 0 W/m2
01:49 1.4 °C -0.2 °C 1024.5 hPa Calm     89% 0.0 mm 0 W/m2
01:54 1.5 °C -0.1 °C 1024.5 hPa Calm     89% 0.0 mm 0 W/m2
01:59 1.4 °C -0.2 °C 1024.6 hPa Calm     89% 0.0 mm 0 W/m2
02:04 1 °C -0.6 °C 1024.6 hPa Calm     89% 0.0 mm 0 W/m2
02:09 0.8 °C -0.8 °C 1024.6 hPa Calm     89% 0.0 mm 0 W/m2
02:14 0.8 °C -0.8 °C 1024.5 hPa Calm     89% 0.0 mm 0 W/m2
02:19 0.9 °C -0.6 °C 1024.5 hPa Calm     89.7% 0.0 mm 0 W/m2
02:24 0.7 °C -0.9 °C 1024.5 hPa Calm     89% 0.0 mm 0 W/m2
02:29 0.7 °C -0.8 °C 1024.5 hPa Calm     89.5% 0.0 mm 0 W/m2
02:34 0.8 °C -0.8 °C 1024.5 hPa Calm     89.3% 0.0 mm 0 W/m2
02:39 0.7 °C -0.8 °C 1024.5 hPa Calm     89.6% 0.0 mm 0 W/m2
02:44 0.6 °C -1 °C 1024.5 hPa Calm     89.3% 0.0 mm 0 W/m2
02:49 0.7 °C -0.8 °C 1024.4 hPa Calm     90% 0.0 mm 0 W/m2
02:54 0.7 °C -0.8 °C 1024.4 hPa Calm     90% 0.0 mm 0 W/m2
02:59 0.8 °C -0.7 °C 1024.4 hPa Calm     89.9% 0.0 mm 0 W/m2
03:04 0.8 °C -0.8 °C 1024.5 hPa Calm     89.2% 0.0 mm 0 W/m2
03:09 0.4 °C -1.1 °C 1024.5 hPa Calm     89.3% 0.0 mm 0 W/m2
03:14 0 °C -1.6 °C 1024.5 hPa Calm     89% 0.0 mm 0 W/m2
03:19 0.1 °C -1.4 °C 1024.5 hPa Calm     89.7% 0.0 mm 0 W/m2
03:24 0.2 °C -1.2 °C 1024.5 hPa Calm     90% 0.0 mm 0 W/m2
03:29 0 °C -1.4 °C 1024.5 hPa Calm     90% 0.0 mm 0 W/m2
03:34 0 °C -1.5 °C 1024.5 hPa Calm     90% 0.0 mm 0 W/m2
03:39 -0.1 °C -1.5 °C 1024.5 hPa Calm     90% 0.0 mm 0 W/m2
03:44 -0.2 °C -1.6 °C 1024.5 hPa Calm     90% 0.0 mm 0 W/m2
03:49 -0.1 °C -1.6 °C 1024.6 hPa Calm     90% 0.0 mm 0 W/m2
03:54 0.1 °C -1.3 °C 1024.5 hPa Calm     90% 0.0 mm 0 W/m2
03:59 0 °C -1.4 °C 1024.6 hPa Calm     90% 0.0 mm 0 W/m2
04:04 0.1 °C -1.4 °C 1024.6 hPa Calm     90% 0.0 mm 0 W/m2
04:09 0.3 °C -1.1 °C 1024.5 hPa Calm     90% 0.0 mm 0 W/m2
04:14 0.4 °C -1 °C 1024.5 hPa Calm     90% 0.0 mm 0 W/m2
04:19 0.3 °C -1.1 °C 1024.5 hPa Calm     90% 0.0 mm 0 W/m2
04:24 0.1 °C -1.3 °C 1024.5 hPa Calm     90% 0.0 mm 0 W/m2
04:29 0.3 °C -1.1 °C 1024.5 hPa Calm     90% 0.0 mm 0 W/m2
04:34 -0.1 °C -1.5 °C 1024.5 hPa Calm     90% 0.0 mm 0 W/m2
04:39 -0.3 °C -1.8 °C 1024.6 hPa Calm     90% 0.0 mm 0 W/m2
04:44 -0.2 °C -1.6 °C 1024.6 hPa Calm     90% 0.0 mm 0 W/m2
04:49 0.1 °C -1.4 °C 1024.7 hPa Calm     90% 0.0 mm 0 W/m2
04:54 -0.3 °C -1.8 °C 1024.8 hPa Calm     90% 0.0 mm 0 W/m2
04:59 -0.5 °C -1.9 °C 1024.8 hPa Calm     90% 0.0 mm 0 W/m2
05:04 -0.2 °C -1.7 °C 1024.9 hPa Calm   4.8 km/h 90% 0.0 mm 0 W/m2
05:09 0.1 °C -1.3 °C 1024.9 hPa West 1 km/h 4.8 km/h 90% 0.0 mm 0 W/m2
05:14 0.2 °C -1.3 °C 1024.9 hPa West 1.6 km/h 4.8 km/h 90% 0.0 mm 0 W/m2
05:19 -0.1 °C -1.6 °C 1025.0 hPa West 1.6 km/h 4.8 km/h 90% 0.0 mm 0 W/m2
05:24 -0.5 °C -1.9 °C 1025.0 hPa West 0.3 km/h 3.2 km/h 90% 0.0 mm 0 W/m2
05:29 -0.2 °C -1.6 °C 1025.1 hPa West 0.7 km/h 4.8 km/h 90% 0.0 mm 0 W/m2
05:34 0.2 °C -1.2 °C 1025.1 hPa West 1.6 km/h 4.8 km/h 90% 0.0 mm 0 W/m2
05:39 0.3 °C -1.1 °C 1025.1 hPa West 1.6 km/h 4.8 km/h 90% 0.0 mm 0 W/m2
05:44 0.4 °C -1 °C 1025.1 hPa West 0.6 km/h 3.2 km/h 90% 0.0 mm 0 W/m2
05:49 0.1 °C -1.4 °C 1025.2 hPa Calm   3.2 km/h 90% 0.0 mm 0 W/m2
05:54 0 °C -1.5 °C 1025.2 hPa Calm   3.2 km/h 90% 0.0 mm 0 W/m2
05:59 0.4 °C -1.1 °C 1025.2 hPa Calm   3.2 km/h 90% 0.0 mm 0 W/m2
06:04 0.6 °C -0.9 °C 1025.2 hPa Calm   3.2 km/h 90% 0.0 mm 0 W/m2
06:09 0.7 °C -0.7 °C 1025.2 hPa West 0.4 km/h 3.2 km/h 90% 0.0 mm 0 W/m2
06:14 0.4 °C -1.1 °C 1025.2 hPa West 1.6 km/h 3.2 km/h 90% 0.0 mm 0 W/m2
06:19 0.1 °C -1.3 °C 1025.4 hPa West 0.6 km/h 3.2 km/h 89.8% 0.0 mm 0 W/m2
06:24 0.2 °C -1.2 °C 1025.4 hPa West 0.4 km/h 4.8 km/h 90% 0.0 mm 0 W/m2
06:29 0.8 °C -0.7 °C 1025.6 hPa West 1.6 km/h 4.8 km/h 90% 0.0 mm 0 W/m2
06:34 1 °C -0.5 °C 1025.7 hPa West 2.6 km/h 4.8 km/h 90% 0.0 mm 0 W/m2
06:39 0.8 °C -0.6 °C 1025.7 hPa West 2.5 km/h 4.8 km/h 90% 0.0 mm 0 W/m2
06:44 0.8 °C -0.6 °C 1025.7 hPa West 1.6 km/h 4.8 km/h 90% 0.0 mm 0 W/m2
06:49 0.5 °C -0.9 °C 1025.7 hPa West 1.2 km/h 3.2 km/h 90% 0.0 mm 0 W/m2
06:54 0 °C -1.5 °C 1025.8 hPa Calm   1.6 km/h 89.7% 0.0 mm 5 W/m2
06:59 0 °C -1.4 °C 1025.8 hPa Calm     90% 0.0 mm 9 W/m2
07:04 0.1 °C -1.3 °C 1025.8 hPa Calm   1.6 km/h 90% 0.0 mm 11 W/m2
07:09 0.4 °C -1.1 °C 1025.8 hPa Calm   3.2 km/h 90% 0.0 mm 12 W/m2
07:14 0.5 °C -0.9 °C 1025.9 hPa Calm   3.2 km/h 90% 0.0 mm 14 W/m2
07:19 0.7 °C -0.8 °C 1026.0 hPa West 1 km/h 4.8 km/h 90% 0.0 mm 16 W/m2
07:24 0.5 °C -1 °C 1026.1 hPa West 1.6 km/h 4.8 km/h 90% 0.0 mm 18 W/m2
07:29 0.6 °C -0.8 °C 1026.1 hPa West 0.6 km/h 4.8 km/h 90% 0.0 mm 19 W/m2
07:34 1 °C -0.5 °C 1026.1 hPa West 1.3 km/h 3.2 km/h 90% 0.0 mm 21 W/m2
07:39 1.2 °C -0.3 °C 1026.2 hPa West 1.6 km/h 3.2 km/h 90% 0.0 mm 60 W/m2
07:44 1.1 °C -0.3 °C 1026.2 hPa West 0.3 km/h 3.2 km/h 90% 0.0 mm 111 W/m2
07:49 0.8 °C -0.7 °C 1026.3 hPa Calm   3.2 km/h 90% 0.0 mm 149 W/m2
07:54 1.3 °C -0.1 °C 1026.4 hPa West 1.3 km/h 3.2 km/h 90% 0.0 mm 163 W/m2
07:59 2.1 °C 0.6 °C 1026.4 hPa West 1.2 km/h 3.2 km/h 90% 0.0 mm 163 W/m2
08:04 2 °C 0.5 °C 1026.5 hPa Calm   3.2 km/h 90% 0.2 mm 172 W/m2
08:09 2.1 °C 0.6 °C 1026.6 hPa Calm   3.2 km/h 90% 0.2 mm 190 W/m2
08:14 2.3 °C 0.8 °C 1026.6 hPa Calm   3.2 km/h 90% 0.2 mm 207 W/m2
08:19 2.5 °C 1 °C 1026.7 hPa Calm   1.6 km/h 90% 0.2 mm 221 W/m2
08:24 2.9 °C 1.4 °C 1026.8 hPa Calm   3.2 km/h 90% 0.2 mm 239 W/m2
08:29 3.5 °C 2 °C 1026.8 hPa Calm   3.2 km/h 90% 0.2 mm 255 W/m2
08:34 4 °C 2.5 °C 1026.8 hPa West 0.7 km/h 6.4 km/h 90% 0.2 mm 271 W/m2
08:39 4.6 °C 3 °C 1026.8 hPa WSW 1.6 km/h 8 km/h 89.4% 0.2 mm 285 W/m2
08:44 5 °C 3.3 °C 1026.8 hPa SW 2.7 km/h 16.1 km/h 89% 0.2 mm 301 W/m2
08:49 5.2 °C 3.6 °C 1026.8 hPa South 5.2 km/h 17.7 km/h 89% 0.2 mm 320 W/m2
08:54 5.6 °C 3.9 °C 1026.7 hPa SSE 5 km/h 17.7 km/h 89% 0.2 mm 338 W/m2
08:59 5.9 °C 4.1 °C 1026.8 hPa SSE 3.2 km/h 17.7 km/h 88.1% 0.2 mm 353 W/m2
09:04 6.3 °C 4.3 °C 1026.8 hPa South 3.2 km/h 11.3 km/h 87% 0.2 mm 369 W/m2
09:09 6.5 °C 4.3 °C 1026.8 hPa South 3.2 km/h 17.7 km/h 85.3% 0.0 mm 385 W/m2
09:14 6.8 °C 4.3 °C 1026.8 hPa SSE 4.2 km/h 17.7 km/h 83.9% 0.0 mm 399 W/m2
09:19 7 °C 4.2 °C 1026.9 hPa SSE 4.8 km/h 17.7 km/h 82.6% 0.0 mm 411 W/m2
09:24 7.4 °C 4.3 °C 1026.9 hPa SSE 3.5 km/h 16.1 km/h 80.7% 0.0 mm 422 W/m2
09:29 7.7 °C 4.3 °C 1026.9 hPa SE 3.2 km/h 11.3 km/h 79.1% 0.0 mm 436 W/m2
09:34 7.8 °C 4 °C 1026.9 hPa SSE 3.2 km/h 14.5 km/h 77.1% 0.0 mm 450 W/m2
09:39 7.7 °C 3.7 °C 1027.0 hPa South 4.2 km/h 14.5 km/h 76% 0.0 mm 462 W/m2
09:44 7.8 °C 3.7 °C 1027.0 hPa SSW 5.1 km/h 14.5 km/h 75.5% 0.0 mm 475 W/m2
09:49 7.8 °C 3.6 °C 1027.0 hPa SSW 5.5 km/h 14.5 km/h 75% 0.0 mm 485 W/m2
09:54 7.8 °C 3.6 °C 1027.1 hPa SSW 6.4 km/h 16.1 km/h 74.4% 0.0 mm 496 W/m2
09:59 8 °C 3.6 °C 1027.1 hPa SSW 6.4 km/h 16.1 km/h 74% 0.0 mm 506 W/m2
10:04 8.3 °C 3.7 °C 1027.1 hPa South 6.4 km/h 16.1 km/h 72.7% 0.0 mm 517 W/m2
10:09 8.3 °C 3.5 °C 1027.1 hPa South 6.4 km/h 16.1 km/h 71.7% 0.0 mm 527 W/m2
10:14 8.7 °C 3.7 °C 1027.1 hPa South 4.5 km/h 16.1 km/h 71.2% 0.0 mm 538 W/m2
10:19 9.1 °C 4.1 °C 1027.1 hPa South 3.2 km/h 16.1 km/h 70.8% 0.0 mm 548 W/m2
10:24 9.2 °C 3.8 °C 1027.1 hPa SSE 4.6 km/h 16.1 km/h 69.3% 0.0 mm 555 W/m2
10:29 9.3 °C 4 °C 1027.0 hPa SSE 4.8 km/h 16.1 km/h 69.4% 0.0 mm 564 W/m2
10:34 9.3 °C 3.4 °C 1027.0 hPa SE 4.8 km/h 16.1 km/h 67% 0.0 mm 571 W/m2
10:39 9.2 °C 3.2 °C 1026.9 hPa SSE 6.2 km/h 14.5 km/h 66.5% 0.0 mm 577 W/m2
10:44 9.3 °C 3.5 °C 1026.8 hPa South 6.4 km/h 16.1 km/h 67.2% 0.0 mm 585 W/m2
10:49 9.6 °C 3.4 °C 1026.8 hPa South 6.4 km/h 16.1 km/h 65.3% 0.0 mm 594 W/m2
10:54 9.8 °C 3.6 °C 1026.7 hPa SSE 6.4 km/h 17.7 km/h 65.1% 0.0 mm 599 W/m2
10:59 10 °C 3.5 °C 1026.7 hPa SSE 5.4 km/h 17.7 km/h 64.2% 0.0 mm 605 W/m2
11:04 10.2 °C 3.3 °C 1026.7 hPa South 4.8 km/h 17.7 km/h 62.3% 0.0 mm 612 W/m2
11:09 10.4 °C 3.5 °C 1026.5 hPa SSE 4.8 km/h 14.5 km/h 62.5% 0.0 mm 617 W/m2
11:14 10.3 °C 3.2 °C 1026.5 hPa South 4.8 km/h 14.5 km/h 61.4% 0.0 mm 621 W/m2
11:19 10.5 °C 3.4 °C 1026.5 hPa South 4.8 km/h 12.9 km/h 61.5% 0.0 mm 626 W/m2
11:24 10.7 °C 3 °C 1026.5 hPa SSE 4.8 km/h 14.5 km/h 58.8% 0.0 mm 629 W/m2
11:29 10.5 °C 2.8 °C 1026.5 hPa South 4.8 km/h 14.5 km/h 58.8% 0.0 mm 633 W/m2
11:34 10.9 °C 3.4 °C 1026.5 hPa South 4.8 km/h 16.1 km/h 60.1% 0.0 mm 635 W/m2
11:39 10.7 °C 2.8 °C 1026.4 hPa South 5.5 km/h 16.1 km/h 58.2% 0.0 mm 638 W/m2
11:44 10.7 °C 2.6 °C 1026.4 hPa South 6.4 km/h 16.1 km/h 57.2% 0.0 mm 640 W/m2
11:49 10.8 °C 3 °C 1026.2 hPa South 6.4 km/h 16.1 km/h 58.6% 0.0 mm 643 W/m2
11:54 11.1 °C 2.8 °C 1026.2 hPa South 6.8 km/h 16.1 km/h 56.5% 0.0 mm 645 W/m2
11:59 10.9 °C 2.5 °C 1026.1 hPa SSW 7.7 km/h 16.1 km/h 56.2% 0.0 mm 645 W/m2
12:04 11.1 °C 3 °C 1026.0 hPa SSW 7.7 km/h 16.1 km/h 57.5% 0.0 mm 645 W/m2
12:09 11.3 °C 3.4 °C 1025.9 hPa SSW 6.4 km/h 16.1 km/h 58.5% 0.0 mm 645 W/m2
12:14 11.4 °C 3.2 °C 1025.8 hPa South 5.4 km/h 12.9 km/h 57.3% 0.0 mm 645 W/m2
12:19 11.4 °C 3.1 °C 1025.8 hPa South 5.5 km/h 16.1 km/h 56.7% 0.0 mm 643 W/m2
12:24 11.6 °C 3.6 °C 1025.7 hPa South 6.4 km/h 16.1 km/h 57.8% 0.0 mm 642 W/m2
12:29 11.8 °C 3.1 °C 1025.7 hPa South 6.4 km/h 16.1 km/h 55.3% 0.0 mm 640 W/m2
12:34 11.7 °C 3.2 °C 1025.6 hPa South 5.7 km/h 14.5 km/h 56% 0.0 mm 638 W/m2
12:39 12.1 °C 3.4 °C 1025.5 hPa South 4.5 km/h 14.5 km/h 55.4% 0.0 mm 635 W/m2
12:44 12 °C 3.4 °C 1025.5 hPa South 4.8 km/h 11.3 km/h 55.6% 0.0 mm 633 W/m2
12:49 12.2 °C 3.4 °C 1025.4 hPa SSW 4.1 km/h 12.9 km/h 54.9% 0.0 mm 631 W/m2
12:54 12.3 °C 3.4 °C 1025.3 hPa South 3.9 km/h 12.9 km/h 54.6% 0.0 mm 626 W/m2
12:59 12.4 °C 3.3 °C 1025.2 hPa South 4.8 km/h 12.9 km/h 54% 0.0 mm 621 W/m2
13:04 11.9 °C 2.8 °C 1025.2 hPa South 4.8 km/h 12.9 km/h 53.7% 0.0 mm 617 W/m2
13:09 12 °C 3.3 °C 1025.1 hPa SSW 4.8 km/h 12.9 km/h 55.3% 0.0 mm 612 W/m2
13:14 12.5 °C 3.6 °C 1025.0 hPa South 3.9 km/h 14.5 km/h 54.4% 0.0 mm 606 W/m2
13:19 12.6 °C 3.3 °C 1024.9 hPa South 4.8 km/h 14.5 km/h 53.1% 0.0 mm 599 W/m2
13:24 13.1 °C 4.3 °C 1024.9 hPa South 4.8 km/h 14.5 km/h 55.3% 0.0 mm 594 W/m2
13:29 13.6 °C 4.1 °C 1024.8 hPa South 2.5 km/h 14.5 km/h 53.1% 0.0 mm 587 W/m2
13:34 13.1 °C 3.5 °C 1024.8 hPa South 3 km/h 14.5 km/h 51.9% 0.0 mm 585 W/m2
13:39 13.2 °C 3.9 °C 1024.8 hPa South 3.2 km/h 14.5 km/h 53.2% 0.0 mm 573 W/m2
13:44 13.4 °C 4 °C 1024.8 hPa South 3.2 km/h 11.3 km/h 52.8% 0.0 mm 571 W/m2
13:49 13.8 °C 4 °C 1024.8 hPa South 3.2 km/h 8 km/h 51.6% 0.0 mm 559 W/m2
13:54 13.3 °C 3.6 °C 1024.8 hPa South 3.2 km/h 8 km/h 51.9% 0.0 mm 557 W/m2
13:59 13.5 °C 4 °C 1024.7 hPa South 3.2 km/h 8 km/h 52.6% 0.0 mm 582 W/m2
14:04 13.2 °C 3.6 °C 1024.7 hPa South 3.2 km/h 8 km/h 52.1% 0.0 mm 589 W/m2
14:09 12.8 °C 3.5 °C 1024.7 hPa South 2.8 km/h 9.7 km/h 53.2% 0.0 mm 130 W/m2
14:14 12.5 °C 3.5 °C 1024.7 hPa South 2.6 km/h 9.7 km/h 54.2% 0.0 mm 592 W/m2
14:19 12.6 °C 3.4 °C 1024.7 hPa South 3.2 km/h 9.7 km/h 53.3% 0.0 mm 148 W/m2
14:24 12.6 °C 3.2 °C 1024.8 hPa South 3.2 km/h 8 km/h 52.8% 0.0 mm 148 W/m2
14:29 12.3 °C 2.9 °C 1024.7 hPa South 1.6 km/h 6.4 km/h 52.7% 0.0 mm 95 W/m2
14:34 12.1 °C 2.9 °C 1024.7 hPa South 1.6 km/h 6.4 km/h 53.6% 0.0 mm 158 W/m2
14:39 11.9 °C 3.7 °C 1024.6 hPa Calm   4.8 km/h 57% 0.0 mm 86 W/m2
14:44 12.1 °C 4.3 °C 1024.6 hPa Calm   4.8 km/h 59.2% 0.0 mm 476 W/m2
14:49 13.1 °C 4.1 °C 1024.6 hPa South 1.3 km/h 4.8 km/h 54.6% 0.0 mm 455 W/m2
14:54 13.2 °C 2.9 °C 1024.6 hPa South 2.6 km/h 6.4 km/h 49.8% 0.0 mm 476 W/m2
14:59 13.3 °C 3.3 °C 1024.6 hPa South 3.2 km/h 8 km/h 51.1% 0.0 mm 547 W/m2
15:04 14 °C 3.5 °C 1024.5 hPa SSW 3.6 km/h 9.7 km/h 49% 0.0 mm 578 W/m2
15:09 13.9 °C 2.6 °C 1024.5 hPa SW 4.1 km/h 9.7 km/h 46.3% 0.0 mm 550 W/m2
15:14 13.7 °C 2.2 °C 1024.6 hPa SW 3.9 km/h 9.7 km/h 45.9% 0.0 mm 262 W/m2
15:19 13.3 °C 1.4 °C 1024.6 hPa SW 4.5 km/h 9.7 km/h 44.4% 0.0 mm 160 W/m2
15:24 12.9 °C 1.8 °C 1024.6 hPa SW 4.6 km/h 9.7 km/h 46.8% 0.0 mm 156 W/m2
15:29 12.7 °C 1.7 °C 1024.6 hPa SW 4.5 km/h 9.7 km/h 47.2% 0.0 mm 149 W/m2
15:34 12.6 °C 1.6 °C 1024.7 hPa SW 3.5 km/h 9.7 km/h 47.1% 0.0 mm 142 W/m2
15:39 12.6 °C 1.5 °C 1024.7 hPa SW 3.2 km/h 6.4 km/h 46.9% 0.0 mm 125 W/m2
15:44 12.6 °C 1.5 °C 1024.7 hPa SW 3.2 km/h 6.4 km/h 46.8% 0.0 mm 116 W/m2
15:49 12.6 °C 1.5 °C 1024.7 hPa SW 2.5 km/h 6.4 km/h 46.9% 0.0 mm 105 W/m2
15:54 12.6 °C 1.3 °C 1024.7 hPa SW 1.6 km/h 6.4 km/h 46.2% 0.0 mm 105 W/m2
15:59 12.6 °C 1.6 °C 1024.7 hPa SW 0.3 km/h 6.4 km/h 47% 0.0 mm 107 W/m2
16:04 12.6 °C 2.2 °C 1024.7 hPa SW 1.6 km/h 6.4 km/h 49.1% 0.0 mm 104 W/m2
16:09 12.6 °C 2.5 °C 1024.6 hPa SW 1.6 km/h 6.4 km/h 50.2% 0.0 mm 95 W/m2
16:14 12.6 °C 2.4 °C 1024.6 hPa SW 1.6 km/h 6.4 km/h 49.8% 0.0 mm 90 W/m2
16:19 12.6 °C 2.6 °C 1024.6 hPa SW 1.6 km/h 4.8 km/h 50.9% 0.0 mm 88 W/m2
16:24 12.4 °C 3 °C 1024.7 hPa SW 0.6 km/h 4.8 km/h 52.8% 0.0 mm 86 W/m2
16:29 12.3 °C 3.6 °C 1024.8 hPa Calm   4.8 km/h 55.7% 0.0 mm 83 W/m2
16:34 12.4 °C 3.2 °C 1024.8 hPa SW 1.3 km/h 3.2 km/h 53.5% 0.0 mm 70 W/m2
16:39 12.4 °C 3.6 °C 1024.9 hPa SW 0.9 km/h 4.8 km/h 54.9% 0.0 mm 56 W/m2
16:44 12.3 °C 3 °C 1024.9 hPa SW 0.1 km/h 4.8 km/h 53.1% 0.0 mm 46 W/m2
16:49 12.2 °C 2.9 °C 1024.9 hPa SW 1.6 km/h 6.4 km/h 53.3% 0.0 mm 40 W/m2
16:54 12 °C 3.2 °C 1024.9 hPa SW 1.6 km/h 6.4 km/h 54.6% 0.0 mm 39 W/m2
16:59 12 °C 3.1 °C 1025.0 hPa SW 1.6 km/h 6.4 km/h 54.8% 0.0 mm 32 W/m2
17:04 11.9 °C 3.3 °C 1025.0 hPa SW 1.6 km/h 6.4 km/h 55.7% 0.0 mm 28 W/m2
17:09 11.9 °C 3.4 °C 1024.9 hPa SW 1.6 km/h 6.4 km/h 56.1% 0.0 mm 25 W/m2
17:14 12 °C 3.7 °C 1025.0 hPa SW 0.9 km/h 4.8 km/h 57.2% 0.0 mm 18 W/m2
17:19 12 °C 3.9 °C 1025.1 hPa SW 0.1 km/h 3.2 km/h 58% 0.0 mm 12 W/m2
17:24 11.9 °C 3.8 °C 1025.2 hPa SSW 1.7 km/h 9.7 km/h 57.7% 0.0 mm 7 W/m2
17:29 11.6 °C 4 °C 1025.3 hPa South 3.2 km/h 9.7 km/h 59.8% 0.0 mm 5 W/m2
17:34 11.3 °C 4.2 °C 1025.3 hPa SSE 3.2 km/h 9.7 km/h 61.6% 0.0 mm 0 W/m2
17:39 11.1 °C 4.4 °C 1025.3 hPa SSE 3.2 km/h 9.7 km/h 63.3% 0.0 mm 0 W/m2
17:44 10.8 °C 4.4 °C 1025.3 hPa SSE 1.9 km/h 9.7 km/h 64.5% 0.0 mm 0 W/m2
17:49 10.7 °C 4.4 °C 1025.3 hPa SSE 2 km/h 8 km/h 65.3% 0.0 mm 0 W/m2
17:54 10.6 °C 4.5 °C 1025.4 hPa SSE 3.2 km/h 8 km/h 66% 0.0 mm 0 W/m2
17:59 10.5 °C 4.5 °C 1025.4 hPa SSE 3.2 km/h 8 km/h 66.6% 0.0 mm 0 W/m2
18:04 10.4 °C 4.5 °C 1025.4 hPa SSE 1.9 km/h 8 km/h 67% 0.0 mm 0 W/m2
18:09 10.3 °C 4.6 °C 1025.5 hPa SSE 1.6 km/h 8 km/h 67.9% 0.0 mm 0 W/m2
18:14 10.2 °C 4.5 °C 1025.5 hPa SSE 1.6 km/h 6.4 km/h 68% 0.0 mm 0 W/m2
18:19 10.1 °C 4.4 °C 1025.5 hPa SSE 0.9 km/h 6.4 km/h 68% 0.0 mm 0 W/m2
18:24 10 °C 4.4 °C 1025.6 hPa Calm   3.2 km/h 68.4% 0.0 mm 0 W/m2
18:29 9.8 °C 4.4 °C 1025.6 hPa Calm   3.2 km/h 69% 0.0 mm 0 W/m2
18:34 9.7 °C 4.3 °C 1025.7 hPa Calm   3.2 km/h 69% 0.0 mm 0 W/m2
18:39 9.6 °C 4.2 °C 1025.8 hPa Calm   3.2 km/h 69% 0.0 mm 0 W/m2
18:44 9.4 °C 4.1 °C 1025.9 hPa Calm   3.2 km/h 69.5% 0.0 mm 0 W/m2
18:49 9.1 °C 4 °C 1026.0 hPa SSE 0.7 km/h 3.2 km/h 70.1% 0.0 mm 0 W/m2
18:54 9 °C 4 °C 1026.0 hPa SSE 1.6 km/h 3.2 km/h 71% 0.0 mm 0 W/m2
18:59 8.8 °C 3.9 °C 1026.1 hPa SSE 1.6 km/h 3.2 km/h 71.3% 0.0 mm 0 W/m2
19:04 8.7 °C 4 °C 1026.1 hPa SSE 0.3 km/h 3.2 km/h 72.4% 0.0 mm 0 W/m2
19:09 8.5 °C 4 °C 1026.1 hPa Calm   3.2 km/h 73.2% 0.0 mm 0 W/m2
19:14 8.3 °C 3.9 °C 1026.2 hPa SSE 1 km/h 6.4 km/h 74% 0.0 mm 0 W/m2
19:19 8.2 °C 3.9 °C 1026.3 hPa SSE 2.6 km/h 6.4 km/h 74.7% 0.0 mm 0 W/m2
19:24 8 °C 3.8 °C 1026.4 hPa SSE 3.2 km/h 6.4 km/h 75% 0.0 mm 0 W/m2
19:29 7.8 °C 3.7 °C 1026.4 hPa SSE 1.6 km/h 6.4 km/h 75.5% 0.0 mm 0 W/m2
19:34 7.6 °C 3.5 °C 1026.5 hPa SSE 2 km/h 6.4 km/h 75% 0.0 mm 0 W/m2
19:39 7.5 °C 3.4 °C 1026.5 hPa SSE 2.9 km/h 6.4 km/h 75.1% 0.0 mm 0 W/m2
19:44 7.3 °C 3.3 °C 1026.5 hPa SSE 1.3 km/h 6.4 km/h 76% 0.0 mm 0 W/m2
19:49 7.1 °C 3.1 °C 1026.5 hPa Calm   1.6 km/h 76% 0.0 mm 0 W/m2
19:54 6.7 °C 3 °C 1026.6 hPa Calm   3.2 km/h 77.5% 0.0 mm 0 W/m2
19:59 6.4 °C 3.2 °C 1026.7 hPa SSE 1.3 km/h 3.2 km/h 79.6% 0.0 mm 0 W/m2
20:04 6.3 °C 3.3 °C 1026.7 hPa SSE 1.6 km/h 3.2 km/h 81% 0.0 mm 0 W/m2
20:09 6.2 °C 3.2 °C 1026.7 hPa SSE 0.6 km/h 3.2 km/h 81% 0.0 mm 0 W/m2
20:14 6.2 °C 3.2 °C 1026.8 hPa Calm   3.2 km/h 80.6% 0.0 mm 0 W/m2
20:19 6.2 °C 3 °C 1026.8 hPa SSE 1.6 km/h 3.2 km/h 80% 0.0 mm 0 W/m2
20:24 5.9 °C 2.7 °C 1027.0 hPa SSE 0.9 km/h 3.2 km/h 79.8% 0.0 mm 0 W/m2
20:29 5.6 °C 2.7 °C 1027.0 hPa Calm   3.2 km/h 81.7% 0.0 mm 0 W/m2
20:34 5.4 °C 2.7 °C 1027.1 hPa Calm     82.8% 0.0 mm 0 W/m2
20:39 5.4 °C 2.7 °C 1027.1 hPa Calm   1.6 km/h 83% 0.0 mm 0 W/m2
20:44 5.5 °C 2.9 °C 1027.2 hPa Calm   1.6 km/h 82.9% 0.0 mm 0 W/m2
20:49 5.6 °C 2.7 °C 1027.3 hPa Calm   1.6 km/h 82% 0.0 mm 0 W/m2
20:54 5.4 °C 2.6 °C 1027.3 hPa Calm     82% 0.0 mm 0 W/m2
20:59 4.9 °C 2.3 °C 1027.5 hPa Calm     83% 0.0 mm 0 W/m2
21:04 4.9 °C 2.4 °C 1027.5 hPa Calm     84.1% 0.0 mm 0 W/m2
21:09 5 °C 2.7 °C 1027.6 hPa Calm   3.2 km/h 85% 0.0 mm 0 W/m2
21:14 5.1 °C 2.8 °C 1027.7 hPa SSE 1 km/h 6.4 km/h 85% 0.0 mm 0 W/m2
21:19 5.1 °C 2.6 °C 1027.7 hPa SSE 1.6 km/h 6.4 km/h 84.2% 0.0 mm 0 W/m2
21:24 5.2 °C 2.7 °C 1027.7 hPa SSE 1.3 km/h 6.4 km/h 84% 0.0 mm 0 W/m2
21:29 5.2 °C 2.7 °C 1027.8 hPa Calm   3.2 km/h 84% 0.0 mm 0 W/m2
21:34 5.1 °C 2.6 °C 1027.8 hPa Calm   1.6 km/h 84% 0.0 mm 0 W/m2
21:39 5.1 °C 2.6 °C 1027.9 hPa Calm   1.6 km/h 84% 0.0 mm 0 W/m2
21:44 4.9 °C 2.4 °C 1027.9 hPa Calm   1.6 km/h 84% 0.0 mm 0 W/m2
21:49 4.7 °C 2.4 °C 1027.9 hPa Calm   1.6 km/h 84.9% 0.0 mm 0 W/m2
21:54 4.8 °C 2.4 °C 1027.9 hPa Calm   1.6 km/h 85% 0.0 mm 0 W/m2
21:59 4.8 °C 2.4 °C 1027.9 hPa Calm     85% 0.0 mm 0 W/m2
22:04 4.7 °C 2.5 °C 1027.9 hPa Calm   1.6 km/h 85.7% 0.0 mm 0 W/m2
22:09 4.7 °C 2.5 °C 1027.9 hPa Calm   3.2 km/h 86% 0.0 mm 0 W/m2
22:14 4.7 °C 2.5 °C 1027.9 hPa SSE 1 km/h 3.2 km/h 86% 0.0 mm 0 W/m2
22:19 4.7 °C 2.7 °C 1027.9 hPa SSE 1.6 km/h 3.2 km/h 86.6% 0.0 mm 0 W/m2
22:24 4.8 °C 2.8 °C 1027.9 hPa SSE 0.9 km/h 3.2 km/h 87% 0.0 mm 0 W/m2
22:29 4.8 °C 2.8 °C 1028.0 hPa Calm   1.6 km/h 87% 0.0 mm 0 W/m2
22:34 4.7 °C 2.7 °C 1027.9 hPa Calm   1.6 km/h 87% 0.0 mm 0 W/m2
22:39 4.8 °C 2.8 °C 1027.9 hPa Calm   1.6 km/h 87% 0.0 mm 0 W/m2
22:44 4.9 °C 2.9 °C 1027.8 hPa Calm   1.6 km/h 87% 0.0 mm 0 W/m2
22:49 5 °C 3 °C 1027.9 hPa Calm     87% 0.0 mm 0 W/m2
22:54 5.1 °C 3.1 °C 1027.9 hPa Calm     87% 0.0 mm 0 W/m2
22:59 4.9 °C 2.9 °C 1027.8 hPa Calm     87% 0.0 mm 0 W/m2
23:04 5 °C 3 °C 1027.7 hPa Calm   1.6 km/h 87% 0.0 mm 0 W/m2
23:09 5.2 °C 3.2 °C 1027.6 hPa Calm   1.6 km/h 87% 0.0 mm 0 W/m2
23:14 5.2 °C 3.1 °C 1027.6 hPa Calm   1.6 km/h 86.3% 0.0 mm 0 W/m2
23:19 5.2 °C 3.2 °C 1027.4 hPa Calm     87% 0.0 mm 0 W/m2
23:24 5.2 °C 3.1 °C 1027.4 hPa Calm   3.2 km/h 86.5% 0.0 mm 0 W/m2
23:29 5.3 °C 3.2 °C 1027.5 hPa Calm   3.2 km/h 86.6% 0.0 mm 0 W/m2
23:34 5.3 °C 3.2 °C 1027.5 hPa Calm   3.2 km/h 86% 0.0 mm 0 W/m2
Compliments of Weather Underground - 1.5 mb

Latitude S 35° 13' 00" Longitude E 149° 01' 22" Elevation 577 m
Page updated 9/08/2022 11:35:42 PM.
Powered by Cumulus MX v3.19.3 (3196)